createdAt,value
2017-05-19T00:01:02.651Z,17.57
2017-05-19T00:05:58.525Z,17.52
2017-05-19T00:10:56.204Z,17.48
2017-05-19T00:15:52.892Z,17.51
2017-05-19T00:20:48.435Z,17.30
2017-05-19T00:25:45.038Z,17.39
2017-05-19T00:30:43.997Z,17.51
2017-05-19T00:35:39.832Z,17.82
2017-05-19T00:40:36.221Z,17.80
2017-05-19T00:45:33.517Z,17.60
2017-05-19T00:50:34.174Z,17.76
2017-05-19T00:55:38.102Z,17.71
2017-05-19T01:20:43.430Z,17.94
2017-05-19T01:25:39.324Z,18.08
2017-05-19T01:40:43.922Z,17.98
2017-05-19T01:55:46.529Z,18.41
2017-05-19T02:10:50.161Z,18.41
2017-05-19T02:20:52.769Z,18.25
2017-05-19T02:30:49.955Z,18.03
2017-05-19T02:35:46.418Z,18.10
2017-05-19T02:45:50.474Z,17.95
2017-05-19T02:50:50.614Z,17.97
2017-05-19T03:10:57.527Z,17.97
2017-05-19T03:25:53.723Z,17.82
2017-05-19T03:30:50.242Z,17.80
2017-05-19T03:40:49.845Z,17.85
2017-05-19T03:45:55.789Z,17.64
2017-05-19T04:31:26.343Z,17.94
2017-05-19T04:36:22.233Z,18.08
2017-05-19T04:41:26.280Z,18.18
2017-05-19T04:46:21.700Z,18.18
2017-05-19T05:01:18.141Z,18.15
2017-05-19T05:11:20.889Z,18.19
2017-05-19T05:36:23.592Z,17.95
2017-05-19T05:41:20.106Z,17.98
2017-05-19T05:46:16.248Z,17.98
2017-05-19T05:56:13.990Z,17.89
2017-05-19T06:06:21.970Z,17.79
2017-05-19T06:11:18.771Z,17.87
2017-05-19T06:31:23.433Z,17.86
2017-05-19T06:41:21.198Z,17.97
2017-05-19T06:46:20.405Z,17.90
2017-05-19T07:01:27.374Z,18.11
2017-05-19T07:11:30.315Z,18.15
2017-05-19T07:16:25.706Z,18.22
2017-05-19T07:21:21.753Z,18.34
2017-05-19T07:26:17.712Z,18.29
2017-05-19T07:31:14.941Z,18.26
2017-05-19T07:36:11.040Z,18.26
2017-05-19T07:41:06.506Z,17.74
2017-05-19T07:46:08.611Z,17.48
2017-05-19T07:56:13.456Z,16.99
2017-05-19T08:01:09.027Z,16.54
2017-05-19T08:06:05.899Z,16.43
2017-05-19T08:11:01.601Z,16.56
2017-05-19T08:15:59.150Z,16.36
2017-05-19T08:20:59.446Z,16.32
2017-05-19T08:25:56.148Z,16.50
2017-05-19T08:30:51.428Z,16.36
2017-05-19T08:35:49.666Z,16.31
2017-05-19T08:40:45.657Z,16.23
2017-05-19T08:45:41.649Z,16.28
2017-05-19T08:50:37.556Z,16.16
2017-05-19T08:55:33.505Z,16.08
2017-05-19T09:00:29.591Z,16.02
2017-05-19T09:05:26.947Z,16.12
2017-05-19T09:10:22.398Z,15.91
2017-05-19T09:15:18.446Z,15.86
2017-05-19T09:20:14.094Z,15.79
2017-05-19T09:25:10.431Z,15.84
2017-05-19T09:30:07.162Z,15.82
2017-05-19T09:35:03.603Z,15.98
2017-05-19T09:40:00.519Z,15.88
2017-05-19T09:44:55.956Z,16.09
2017-05-19T09:49:53.242Z,16.01
2017-05-19T10:04:54.176Z,16.28
2017-05-19T10:09:50.840Z,16.17
2017-05-19T10:14:46.502Z,16.05
2017-05-19T10:19:42.772Z,16.21
2017-05-19T10:24:38.650Z,16.21
2017-05-19T10:29:38.515Z,16.51
2017-05-19T10:34:33.899Z,16.54
2017-05-19T10:39:29.853Z,16.68
2017-05-19T10:44:29.761Z,16.72
2017-05-19T10:49:25.490Z,16.72
2017-05-19T10:54:21.493Z,16.53
2017-05-19T11:04:18.698Z,16.68
2017-05-19T11:09:14.281Z,16.69
2017-05-19T11:14:11.689Z,16.46
2017-05-19T11:19:10.579Z,16.12
2017-05-19T11:29:06.016Z,15.95
2017-05-19T11:34:01.299Z,15.76
2017-05-19T11:39:02.522Z,15.82
2017-05-19T11:54:00.216Z,15.90
2017-05-19T11:58:56.842Z,15.88
2017-05-19T12:03:53.815Z,15.79
2017-05-19T12:08:48.904Z,15.83
2017-05-19T12:13:45.091Z,16.01
2017-05-19T12:18:42.191Z,15.76
2017-05-19T12:23:37.949Z,15.77
2017-05-19T12:28:33.933Z,15.76
2017-05-19T12:43:39.231Z,15.70
2017-05-19T12:58:36.654Z,15.88
2017-05-19T13:03:35.658Z,15.83
2017-05-19T13:13:31.583Z,15.73
2017-05-19T13:18:27.835Z,15.79
2017-05-19T13:23:25.019Z,15.73
2017-05-19T13:28:21.932Z,15.88
2017-05-19T13:33:17.621Z,15.86
2017-05-19T13:38:13.948Z,15.75
2017-05-19T13:43:09.673Z,15.57
2017-05-19T13:48:06.430Z,15.37
2017-05-19T13:53:01.666Z,15.19
2017-05-19T13:57:58.999Z,15.06
2017-05-19T14:02:55.474Z,15.11
2017-05-19T14:07:51.600Z,15.00
2017-05-19T14:12:47.697Z,15.11
2017-05-19T14:17:43.501Z,15.18
2017-05-19T14:22:40.259Z,15.33
2017-05-19T14:27:35.687Z,14.79
2017-05-19T14:32:31.202Z,14.70
2017-05-19T14:37:28.021Z,14.63
2017-05-19T14:42:23.595Z,14.86
2017-05-19T14:47:22.151Z,14.97
2017-05-19T14:52:17.748Z,15.04
2017-05-19T14:57:14.954Z,14.89
2017-05-19T15:02:11.348Z,14.85
2017-05-19T15:07:07.193Z,14.53
2017-05-19T15:12:02.968Z,14.48
2017-05-19T15:16:58.773Z,14.65
2017-05-19T15:21:54.735Z,14.63
2017-05-19T15:26:50.698Z,14.28
2017-05-19T15:31:46.671Z,14.44
2017-05-19T15:36:42.540Z,14.33
2017-05-19T15:41:38.092Z,14.33
2017-05-19T15:46:34.293Z,14.70
2017-05-19T15:51:30.601Z,14.72
2017-05-19T15:56:26.292Z,14.50
2017-05-19T16:01:22.012Z,14.43
2017-05-19T16:06:20.459Z,14.08
2017-05-19T16:11:15.854Z,13.99
2017-05-19T16:16:11.827Z,13.89
2017-05-19T16:21:07.395Z,13.78
2017-05-19T16:26:03.483Z,13.85
2017-05-19T16:31:00.062Z,13.93
2017-05-19T16:35:55.441Z,14.14
2017-05-19T16:40:51.222Z,14.14
2017-05-19T16:45:47.371Z,14.00
2017-05-19T16:50:42.944Z,13.78
2017-05-19T16:55:39.244Z,14.00
2017-05-19T17:00:35.290Z,13.79
2017-05-19T17:05:31.042Z,13.90
2017-05-19T17:10:29.573Z,13.90
2017-05-19T17:15:26.214Z,13.87
2017-05-19T17:20:22.430Z,13.89
2017-05-19T17:25:17.570Z,13.81
2017-05-19T17:30:13.541Z,13.78
2017-05-19T17:35:12.844Z,13.79
2017-05-19T17:40:07.920Z,13.79
2017-05-19T17:45:04.107Z,13.90
2017-05-19T17:49:59.880Z,13.92
2017-05-19T17:54:55.889Z,13.97
2017-05-19T17:59:51.593Z,13.83
2017-05-19T18:04:47.341Z,13.97
2017-05-19T18:09:42.848Z,13.81
2017-05-19T18:14:38.866Z,13.53
2017-05-19T18:19:34.921Z,13.57
2017-05-19T18:24:30.745Z,13.68
2017-05-19T18:29:26.678Z,13.63
2017-05-19T18:34:22.319Z,13.74
2017-05-19T18:39:18.565Z,13.63
2017-05-19T18:44:15.703Z,13.62
2017-05-19T18:49:10.919Z,13.72
2017-05-19T18:54:08.076Z,13.86
2017-05-19T18:59:04.113Z,13.75
2017-05-19T19:04:03.401Z,13.85
2017-05-19T19:08:58.195Z,13.70
2017-05-19T19:13:55.693Z,13.39
2017-05-19T19:18:53.321Z,13.49
2017-05-19T19:23:48.421Z,13.23
2017-05-19T19:28:44.317Z,13.37
2017-05-19T19:33:40.880Z,13.30
2017-05-19T19:38:36.411Z,13.38
2017-05-19T19:43:32.766Z,13.30
2017-05-19T19:48:33.331Z,13.16
2017-05-19T19:53:35.757Z,13.31
2017-05-19T19:58:29.479Z,13.27
2017-05-19T20:03:25.024Z,13.23
2017-05-19T20:08:20.954Z,13.16
2017-05-19T20:13:20.317Z,13.11
2017-05-19T20:18:16.578Z,13.09
2017-05-19T20:23:12.746Z,13.20
2017-05-19T20:28:08.646Z,13.27
2017-05-19T20:33:05.383Z,13.30
2017-05-19T20:38:02.065Z,13.20
2017-05-19T20:43:00.720Z,13.28
2017-05-19T20:47:55.656Z,13.18
2017-05-19T20:52:51.247Z,13.15
2017-05-19T20:57:46.815Z,13.30
2017-05-19T21:02:43.416Z,13.33
2017-05-19T21:07:39.977Z,13.30
2017-05-19T21:12:36.203Z,13.20
2017-05-19T21:17:32.101Z,13.28
2017-05-19T21:22:27.936Z,13.18
2017-05-19T21:27:23.973Z,13.28
2017-05-19T21:32:19.480Z,13.31
2017-05-19T21:37:15.599Z,13.19
2017-05-19T21:42:12.453Z,13.23
2017-05-19T21:47:08.184Z,13.37
2017-05-19T21:52:04.107Z,13.44
2017-05-19T21:57:02.703Z,13.31
2017-05-19T22:01:57.330Z,13.25
2017-05-19T22:06:53.146Z,13.37
2017-05-19T22:11:48.889Z,13.44
2017-05-19T22:16:45.026Z,13.25
2017-05-19T22:21:41.184Z,13.27
2017-05-19T22:26:37.170Z,13.19
2017-05-19T22:31:32.981Z,13.28
2017-05-19T22:36:28.504Z,13.13
2017-05-19T22:41:24.786Z,13.25
2017-05-19T22:46:21.026Z,13.25
2017-05-19T22:51:16.725Z,13.15
2017-05-19T22:56:12.558Z,13.31
2017-05-19T23:01:08.589Z,13.35
2017-05-19T23:06:04.319Z,13.19
2017-05-19T23:11:00.067Z,13.19
2017-05-19T23:15:55.824Z,13.23
2017-05-19T23:20:52.194Z,13.33
2017-05-19T23:25:47.954Z,13.15
2017-05-19T23:30:43.963Z,13.16
2017-05-19T23:35:40.641Z,13.30
2017-05-19T23:40:36.005Z,13.27
2017-05-19T23:45:31.672Z,13.16
2017-05-19T23:50:28.387Z,13.22
2017-05-19T23:55:24.095Z,13.12
